sensor_id;sensor_type;location;lat;lon;timestamp;P1;durP1;ratioP1;P2;durP2;ratioP2
10056;SDS011;5068;51.286;7.518;2023-11-22T00:01:21;7.68;;;4.82;;
10056;SDS011;5068;51.286;7.518;2023-11-22T00:04:28;6.22;;;3.67;;
10056;SDS011;5068;51.286;7.518;2023-11-22T00:06:02;5.68;;;4.10;;
10056;SDS011;5068;51.286;7.518;2023-11-22T00:07:36;5.43;;;3.75;;
10056;SDS011;5068;51.286;7.518;2023-11-22T00:09:09;6.50;;;3.88;;
10056;SDS011;5068;51.286;7.518;2023-11-22T00:10:42;5.70;;;3.83;;
10056;SDS011;5068;51.286;7.518;2023-11-22T00:12:15;5.85;;;4.25;;
10056;SDS011;5068;51.286;7.518;2023-11-22T00:13:49;5.10;;;3.50;;
10056;SDS011;5068;51.286;7.518;2023-11-22T00:15:28;6.95;;;3.80;;
10056;SDS011;5068;51.286;7.518;2023-11-22T00:17:02;6.03;;;3.92;;
10056;SDS011;5068;51.286;7.518;2023-11-22T00:18:35;5.90;;;4.10;;
10056;SDS011;5068;51.286;7.518;2023-11-22T00:20:10;6.00;;;4.03;;
10056;SDS011;5068;51.286;7.518;2023-11-22T00:21:43;5.93;;;4.00;;
10056;SDS011;5068;51.286;7.518;2023-11-22T00:23:18;7.47;;;4.05;;
10056;SDS011;5068;51.286;7.518;2023-11-22T00:24:50;5.78;;;3.92;;
10056;SDS011;5068;51.286;7.518;2023-11-22T00:26:23;5.20;;;3.92;;
10056;SDS011;5068;51.286;7.518;2023-11-22T00:28:01;7.65;;;4.07;;
10056;SDS011;5068;51.286;7.518;2023-11-22T00:29:37;6.25;;;4.30;;
10056;SDS011;5068;51.286;7.518;2023-11-22T00:31:09;7.35;;;3.50;;
10056;SDS011;5068;51.286;7.518;2023-11-22T00:32:42;5.95;;;3.85;;
10056;SDS011;5068;51.286;7.518;2023-11-22T00:34:15;6.15;;;4.50;;
10056;SDS011;5068;51.286;7.518;2023-11-22T00:35:51;5.38;;;3.97;;
10056;SDS011;5068;51.286;7.518;2023-11-22T00:37:28;6.43;;;4.80;;
10056;SDS011;5068;51.286;7.518;2023-11-22T00:39:02;6.50;;;3.95;;
10056;SDS011;5068;51.286;7.518;2023-11-22T00:40:35;5.35;;;4.18;;
10056;SDS011;5068;51.286;7.518;2023-11-22T00:42:08;5.55;;;4.15;;
10056;SDS011;5068;51.286;7.518;2023-11-22T00:43:41;7.28;;;4.10;;
10056;SDS011;5068;51.286;7.518;2023-11-22T00:45:14;5.55;;;4.03;;
10056;SDS011;5068;51.286;7.518;2023-11-22T00:46:47;6.53;;;4.20;;
10056;SDS011;5068;51.286;7.518;2023-11-22T00:48:20;5.55;;;4.15;;
10056;SDS011;5068;51.286;7.518;2023-11-22T00:49:52;5.15;;;4.10;;
10056;SDS011;5068;51.286;7.518;2023-11-22T00:51:27;5.90;;;4.03;;
10056;SDS011;5068;51.286;7.518;2023-11-22T00:53:01;6.32;;;4.25;;
10056;SDS011;5068;51.286;7.518;2023-11-22T00:54:36;5.50;;;3.88;;
10056;SDS011;5068;51.286;7.518;2023-11-22T00:56:08;7.65;;;4.75;;
10056;SDS011;5068;51.286;7.518;2023-11-22T00:57:41;5.55;;;4.25;;
10056;SDS011;5068;51.286;7.518;2023-11-22T00:59:14;6.35;;;4.10;;
10056;SDS011;5068;51.286;7.518;2023-11-22T01:00:49;4.88;;;3.53;;
10056;SDS011;5068;51.286;7.518;2023-11-22T01:02:21;6.05;;;3.70;;
10056;SDS011;5068;51.286;7.518;2023-11-22T01:03:54;5.72;;;4.00;;
10056;SDS011;5068;51.286;7.518;2023-11-22T01:05:27;4.78;;;3.88;;
10056;SDS011;5068;51.286;7.518;2023-11-22T01:07:00;6.40;;;4.00;;
10056;SDS011;5068;51.286;7.518;2023-11-22T01:08:33;5.43;;;3.95;;
10056;SDS011;5068;51.286;7.518;2023-11-22T01:10:10;5.95;;;3.42;;
10056;SDS011;5068;51.286;7.518;2023-11-22T01:11:43;5.72;;;4.63;;
10056;SDS011;5068;51.286;7.518;2023-11-22T01:13:17;5.97;;;3.75;;
10056;SDS011;5068;51.286;7.518;2023-11-22T01:14:49;6.78;;;3.97;;
10056;SDS011;5068;51.286;7.518;2023-11-22T01:16:23;5.03;;;4.00;;
10056;SDS011;5068;51.286;7.518;2023-11-22T01:17:56;5.30;;;3.72;;
10056;SDS011;5068;51.286;7.518;2023-11-22T01:19:28;6.43;;;3.88;;
10056;SDS011;5068;51.286;7.518;2023-11-22T01:21:02;5.53;;;3.60;;
10056;SDS011;5068;51.286;7.518;2023-11-22T01:22:35;7.15;;;3.80;;
10056;SDS011;5068;51.286;7.518;2023-11-22T01:24:09;6.68;;;4.20;;
10056;SDS011;5068;51.286;7.518;2023-11-22T01:25:44;5.60;;;4.20;;
10056;SDS011;5068;51.286;7.518;2023-11-22T01:27:17;5.63;;;4.22;;
10056;SDS011;5068;51.286;7.518;2023-11-22T01:28:49;6.53;;;3.95;;
10056;SDS011;5068;51.286;7.518;2023-11-22T01:30:23;5.22;;;3.97;;
10056;SDS011;5068;51.286;7.518;2023-11-22T01:31:55;5.25;;;3.78;;
10056;SDS011;5068;51.286;7.518;2023-11-22T01:33:29;5.43;;;3.90;;
10056;SDS011;5068;51.286;7.518;2023-11-22T01:35:03;5.40;;;4.30;;
10056;SDS011;5068;51.286;7.518;2023-11-22T01:38:13;4.85;;;3.58;;
10056;SDS011;5068;51.286;7.518;2023-11-22T01:39:47;4.95;;;3.65;;
10056;SDS011;5068;51.286;7.518;2023-11-22T01:41:21;7.15;;;4.25;;
10056;SDS011;5068;51.286;7.518;2023-11-22T01:42:55;6.32;;;3.75;;
10056;SDS011;5068;51.286;7.518;2023-11-22T01:44:27;6.00;;;3.83;;
10056;SDS011;5068;51.286;7.518;2023-11-22T01:46:01;5.50;;;3.97;;
10056;SDS011;5068;51.286;7.518;2023-11-22T01:47:34;5.60;;;4.03;;
10056;SDS011;5068;51.286;7.518;2023-11-22T01:49:09;5.10;;;3.97;;
10056;SDS011;5068;51.286;7.518;2023-11-22T01:50:42;5.60;;;4.00;;
10056;SDS011;5068;51.286;7.518;2023-11-22T01:52:16;4.47;;;3.38;;
10056;SDS011;5068;51.286;7.518;2023-11-22T01:53:50;5.35;;;3.63;;
10056;SDS011;5068;51.286;7.518;2023-11-22T01:55:26;5.28;;;4.10;;
10056;SDS011;5068;51.286;7.518;2023-11-22T01:57:00;4.78;;;3.35;;
10056;SDS011;5068;51.286;7.518;2023-11-22T01:58:37;7.13;;;3.75;;
10056;SDS011;5068;51.286;7.518;2023-11-22T02:00:10;6.03;;;3.47;;
10056;SDS011;5068;51.286;7.518;2023-11-22T02:01:46;5.45;;;4.25;;
10056;SDS011;5068;51.286;7.518;2023-11-22T02:03:20;5.45;;;4.35;;
10056;SDS011;5068;51.286;7.518;2023-11-22T02:04:54;6.00;;;3.55;;
10056;SDS011;5068;51.286;7.518;2023-11-22T02:06:26;6.07;;;4.07;;
10056;SDS011;5068;51.286;7.518;2023-11-22T02:08:03;6.90;;;4.30;;
10056;SDS011;5068;51.286;7.518;2023-11-22T02:09:36;5.20;;;3.58;;
10056;SDS011;5068;51.286;7.518;2023-11-22T02:11:10;4.43;;;3.92;;
10056;SDS011;5068;51.286;7.518;2023-11-22T02:12:44;5.18;;;4.15;;
10056;SDS011;5068;51.286;7.518;2023-11-22T02:14:17;6.57;;;4.22;;
10056;SDS011;5068;51.286;7.518;2023-11-22T02:15:51;6.00;;;4.18;;
10056;SDS011;5068;51.286;7.518;2023-11-22T02:17:27;6.03;;;4.03;;
10056;SDS011;5068;51.286;7.518;2023-11-22T02:19:00;5.32;;;3.90;;
10056;SDS011;5068;51.286;7.518;2023-11-22T02:20:35;6.82;;;3.90;;
10056;SDS011;5068;51.286;7.518;2023-11-22T02:22:07;5.28;;;3.80;;
10056;SDS011;5068;51.286;7.518;2023-11-22T02:23:42;6.20;;;4.03;;
10056;SDS011;5068;51.286;7.518;2023-11-22T02:25:15;5.97;;;3.90;;
10056;SDS011;5068;51.286;7.518;2023-11-22T02:26:48;6.18;;;4.78;;
10056;SDS011;5068;51.286;7.518;2023-11-22T02:28:21;6.63;;;4.28;;
10056;SDS011;5068;51.286;7.518;2023-11-22T02:29:55;6.78;;;4.47;;
10056;SDS011;5068;51.286;7.518;2023-11-22T02:31:27;6.57;;;4.22;;
10056;SDS011;5068;51.286;7.518;2023-11-22T02:33:01;7.00;;;4.32;;
10056;SDS011;5068;51.286;7.518;2023-11-22T02:34:33;6.53;;;4.13;;
10056;SDS011;5068;51.286;7.518;2023-11-22T02:36:07;7.57;;;4.13;;
10056;SDS011;5068;51.286;7.518;2023-11-22T02:37:43;4.82;;;3.75;;
10056;SDS011;5068;51.286;7.518;2023-11-22T02:39:18;6.43;;;3.90;;
10056;SDS011;5068;51.286;7.518;2023-11-22T02:40:51;5.55;;;4.00;;
10056;SDS011;5068;51.286;7.518;2023-11-22T02:42:25;6.68;;;3.70;;
10056;SDS011;5068;51.286;7.518;2023-11-22T02:43:57;5.50;;;3.60;;
10056;SDS011;5068;51.286;7.518;2023-11-22T02:45:31;5.70;;;4.18;;
10056;SDS011;5068;51.286;7.518;2023-11-22T02:47:07;6.32;;;4.00;;
10056;SDS011;5068;51.286;7.518;2023-11-22T02:48:42;5.05;;;3.90;;
10056;SDS011;5068;51.286;7.518;2023-11-22T02:50:25;4.70;;;3.83;;
10056;SDS011;5068;51.286;7.518;2023-11-22T02:51:59;5.00;;;3.63;;
10056;SDS011;5068;51.286;7.518;2023-11-22T02:53:40;5.35;;;3.45;;
10056;SDS011;5068;51.286;7.518;2023-11-22T02:55:17;5.82;;;3.85;;
10056;SDS011;5068;51.286;7.518;2023-11-22T02:56:51;6.07;;;3.63;;
10056;SDS011;5068;51.286;7.518;2023-11-22T02:58:23;4.45;;;3.45;;
10056;SDS011;5068;51.286;7.518;2023-11-22T02:59:57;5.10;;;3.50;;
10056;SDS011;5068;51.286;7.518;2023-11-22T03:01:30;4.90;;;3.35;;
10056;SDS011;5068;51.286;7.518;2023-11-22T03:03:03;4.50;;;3.20;;
10056;SDS011;5068;51.286;7.518;2023-11-22T03:04:40;4.50;;;3.13;;
10056;SDS011;5068;51.286;7.518;2023-11-22T03:06:13;4.82;;;2.88;;
10056;SDS011;5068;51.286;7.518;2023-11-22T03:07:46;4.85;;;2.95;;
10056;SDS011;5068;51.286;7.518;2023-11-22T03:09:19;4.72;;;3.20;;
10056;SDS011;5068;51.286;7.518;2023-11-22T03:10:55;4.53;;;3.03;;
10056;SDS011;5068;51.286;7.518;2023-11-22T03:12:28;4.40;;;2.92;;
10056;SDS011;5068;51.286;7.518;2023-11-22T03:14:01;4.03;;;2.88;;
10056;SDS011;5068;51.286;7.518;2023-11-22T03:15:35;4.50;;;2.65;;
10056;SDS011;5068;51.286;7.518;2023-11-22T03:17:08;5.10;;;2.92;;
10056;SDS011;5068;51.286;7.518;2023-11-22T03:18:41;4.28;;;2.70;;
10056;SDS011;5068;51.286;7.518;2023-11-22T03:20:14;3.78;;;2.70;;
10056;SDS011;5068;51.286;7.518;2023-11-22T03:21:47;4.18;;;2.50;;
10056;SDS011;5068;51.286;7.518;2023-11-22T03:23:21;3.30;;;2.55;;
10056;SDS011;5068;51.286;7.518;2023-11-22T03:24:53;4.95;;;2.30;;
10056;SDS011;5068;51.286;7.518;2023-11-22T03:26:28;3.95;;;2.38;;
10056;SDS011;5068;51.286;7.518;2023-11-22T03:28:01;5.35;;;2.40;;
10056;SDS011;5068;51.286;7.518;2023-11-22T03:29:34;3.95;;;1.98;;
10056;SDS011;5068;51.286;7.518;2023-11-22T03:31:06;2.97;;;2.13;;
10056;SDS011;5068;51.286;7.518;2023-11-22T03:32:40;3.10;;;2.28;;
10056;SDS011;5068;51.286;7.518;2023-11-22T03:34:13;4.78;;;2.50;;
10056;SDS011;5068;51.286;7.518;2023-11-22T03:35:46;4.32;;;2.33;;
10056;SDS011;5068;51.286;7.518;2023-11-22T03:37:18;3.53;;;2.33;;
10056;SDS011;5068;51.286;7.518;2023-11-22T03:38:52;3.38;;;2.13;;
10056;SDS011;5068;51.286;7.518;2023-11-22T03:40:24;3.17;;;2.10;;
10056;SDS011;5068;51.286;7.518;2023-11-22T03:41:59;4.80;;;2.42;;
10056;SDS011;5068;51.286;7.518;2023-11-22T03:43:32;3.47;;;2.08;;
10056;SDS011;5068;51.286;7.518;2023-11-22T03:45:05;4.30;;;2.30;;
10056;SDS011;5068;51.286;7.518;2023-11-22T03:46:39;3.72;;;2.20;;
10056;SDS011;5068;51.286;7.518;2023-11-22T03:48:12;3.55;;;2.17;;
10056;SDS011;5068;51.286;7.518;2023-11-22T03:49:45;2.45;;;1.92;;
10056;SDS011;5068;51.286;7.518;2023-11-22T03:51:18;2.15;;;1.52;;
10056;SDS011;5068;51.286;7.518;2023-11-22T03:52:51;3.70;;;2.13;;
10056;SDS011;5068;51.286;7.518;2023-11-22T03:54:23;4.35;;;2.30;;
10056;SDS011;5068;51.286;7.518;2023-11-22T03:55:57;3.63;;;2.40;;
10056;SDS011;5068;51.286;7.518;2023-11-22T03:57:32;3.10;;;1.83;;
10056;SDS011;5068;51.286;7.518;2023-11-22T03:59:05;3.15;;;2.08;;
10056;SDS011;5068;51.286;7.518;2023-11-22T04:00:39;4.03;;;2.05;;
10056;SDS011;5068;51.286;7.518;2023-11-22T04:02:11;3.47;;;2.13;;
10056;SDS011;5068;51.286;7.518;2023-11-22T04:03:44;5.97;;;2.30;;
10056;SDS011;5068;51.286;7.518;2023-11-22T04:05:17;2.85;;;1.75;;
10056;SDS011;5068;51.286;7.518;2023-11-22T04:06:51;3.03;;;1.92;;
10056;SDS011;5068;51.286;7.518;2023-11-22T04:08:24;5.75;;;2.17;;
10056;SDS011;5068;51.286;7.518;2023-11-22T04:09:57;3.33;;;2.38;;
10056;SDS011;5068;51.286;7.518;2023-11-22T04:11:31;4.85;;;2.17;;
10056;SDS011;5068;51.286;7.518;2023-11-22T04:13:06;2.58;;;1.58;;
10056;SDS011;5068;51.286;7.518;2023-11-22T04:14:38;3.35;;;1.63;;
10056;SDS011;5068;51.286;7.518;2023-11-22T04:16:12;3.40;;;1.98;;
10056;SDS011;5068;51.286;7.518;2023-11-22T04:17:45;4.75;;;2.05;;
10056;SDS011;5068;51.286;7.518;2023-11-22T04:19:20;5.72;;;2.30;;
10056;SDS011;5068;51.286;7.518;2023-11-22T04:20:54;2.95;;;2.20;;
10056;SDS011;5068;51.286;7.518;2023-11-22T04:22:26;3.08;;;1.90;;
10056;SDS011;5068;51.286;7.518;2023-11-22T04:24:00;3.25;;;1.63;;
10056;SDS011;5068;51.286;7.518;2023-11-22T04:25:32;2.80;;;1.92;;
10056;SDS011;5068;51.286;7.518;2023-11-22T04:27:06;2.72;;;1.80;;
10056;SDS011;5068;51.286;7.518;2023-11-22T04:28:40;3.38;;;1.67;;
10056;SDS011;5068;51.286;7.518;2023-11-22T04:30:14;4.45;;;2.17;;
10056;SDS011;5068;51.286;7.518;2023-11-22T04:31:48;3.10;;;1.80;;
10056;SDS011;5068;51.286;7.518;2023-11-22T04:33:21;3.53;;;2.05;;
10056;SDS011;5068;51.286;7.518;2023-11-22T04:34:54;3.17;;;2.05;;
10056;SDS011;5068;51.286;7.518;2023-11-22T04:36:27;4.28;;;2.10;;
10056;SDS011;5068;51.286;7.518;2023-11-22T04:38:01;2.75;;;1.75;;
10056;SDS011;5068;51.286;7.518;2023-11-22T04:39:33;3.67;;;2.08;;
10056;SDS011;5068;51.286;7.518;2023-11-22T04:41:07;2.90;;;1.85;;
10056;SDS011;5068;51.286;7.518;2023-11-22T04:42:39;2.97;;;1.77;;
10056;SDS011;5068;51.286;7.518;2023-11-22T04:44:14;5.28;;;2.00;;
10056;SDS011;5068;51.286;7.518;2023-11-22T04:45:46;3.33;;;2.30;;
10056;SDS011;5068;51.286;7.518;2023-11-22T04:47:20;2.75;;;1.90;;
10056;SDS011;5068;51.286;7.518;2023-11-22T04:48:53;3.67;;;2.38;;
10056;SDS011;5068;51.286;7.518;2023-11-22T04:50:27;3.75;;;2.20;;
10056;SDS011;5068;51.286;7.518;2023-11-22T04:51:59;3.97;;;2.22;;
10056;SDS011;5068;51.286;7.518;2023-11-22T04:53:33;5.57;;;2.00;;
10056;SDS011;5068;51.286;7.518;2023-11-22T04:55:05;4.75;;;2.22;;
10056;SDS011;5068;51.286;7.518;2023-11-22T04:56:39;2.78;;;2.03;;
10056;SDS011;5068;51.286;7.518;2023-11-22T04:58:12;3.45;;;2.13;;
10056;SDS011;5068;51.286;7.518;2023-11-22T04:59:47;3.00;;;1.98;;
10056;SDS011;5068;51.286;7.518;2023-11-22T05:01:19;3.95;;;2.08;;
10056;SDS011;5068;51.286;7.518;2023-11-22T05:02:54;3.88;;;2.28;;
10056;SDS011;5068;51.286;7.518;2023-11-22T05:04:27;2.83;;;2.05;;
10056;SDS011;5068;51.286;7.518;2023-11-22T05:06:00;2.97;;;1.98;;
10056;SDS011;5068;51.286;7.518;2023-11-22T05:07:32;3.45;;;2.00;;
10056;SDS011;5068;51.286;7.518;2023-11-22T05:09:06;3.05;;;1.98;;
10056;SDS011;5068;51.286;7.518;2023-11-22T05:10:38;4.10;;;2.25;;
10056;SDS011;5068;51.286;7.518;2023-11-22T05:12:11;2.83;;;1.83;;
10056;SDS011;5068;51.286;7.518;2023-11-22T05:13:45;4.78;;;2.22;;
10056;SDS011;5068;51.286;7.518;2023-11-22T05:15:20;3.33;;;1.90;;
10056;SDS011;5068;51.286;7.518;2023-11-22T05:16:53;4.18;;;1.77;;
10056;SDS011;5068;51.286;7.518;2023-11-22T05:18:28;4.10;;;1.85;;
10056;SDS011;5068;51.286;7.518;2023-11-22T05:20:00;3.90;;;2.08;;
10056;SDS011;5068;51.286;7.518;2023-11-22T05:21:34;3.53;;;1.95;;
10056;SDS011;5068;51.286;7.518;2023-11-22T05:23:07;3.55;;;2.15;;
10056;SDS011;5068;51.286;7.518;2023-11-22T05:24:40;3.00;;;2.00;;
10056;SDS011;5068;51.286;7.518;2023-11-22T05:26:13;6.05;;;2.35;;
10056;SDS011;5068;51.286;7.518;2023-11-22T05:27:45;3.40;;;2.20;;
10056;SDS011;5068;51.286;7.518;2023-11-22T05:29:19;3.85;;;2.20;;
10056;SDS011;5068;51.286;7.518;2023-11-22T05:30:53;3.80;;;2.10;;
10056;SDS011;5068;51.286;7.518;2023-11-22T05:32:26;3.63;;;2.30;;
10056;SDS011;5068;51.286;7.518;2023-11-22T05:33:59;4.82;;;2.80;;
10056;SDS011;5068;51.286;7.518;2023-11-22T05:35:32;4.63;;;2.53;;
10056;SDS011;5068;51.286;7.518;2023-11-22T05:37:05;5.05;;;2.92;;
10056;SDS011;5068;51.286;7.518;2023-11-22T05:38:38;5.13;;;2.85;;
10056;SDS011;5068;51.286;7.518;2023-11-22T05:40:11;4.70;;;2.33;;
10056;SDS011;5068;51.286;7.518;2023-11-22T05:41:44;4.18;;;2.40;;
10056;SDS011;5068;51.286;7.518;2023-11-22T05:43:17;6.43;;;2.85;;
10056;SDS011;5068;51.286;7.518;2023-11-22T05:44:56;4.03;;;2.40;;
10056;SDS011;5068;51.286;7.518;2023-11-22T05:46:30;5.45;;;2.38;;
10056;SDS011;5068;51.286;7.518;2023-11-22T05:48:05;9.10;;;2.90;;
10056;SDS011;5068;51.286;7.518;2023-11-22T05:49:37;6.50;;;2.42;;
10056;SDS011;5068;51.286;7.518;2023-11-22T05:51:10;4.38;;;2.65;;
10056;SDS011;5068;51.286;7.518;2023-11-22T05:52:43;8.43;;;2.97;;
10056;SDS011;5068;51.286;7.518;2023-11-22T05:54:16;10.15;;;2.50;;
10056;SDS011;5068;51.286;7.518;2023-11-22T05:55:49;5.45;;;2.35;;
10056;SDS011;5068;51.286;7.518;2023-11-22T05:57:22;5.38;;;2.40;;
10056;SDS011;5068;51.286;7.518;2023-11-22T05:58:54;10.88;;;2.65;;
10056;SDS011;5068;51.286;7.518;2023-11-22T06:00:28;6.78;;;3.03;;
10056;SDS011;5068;51.286;7.518;2023-11-22T06:02:02;4.85;;;2.42;;
10056;SDS011;5068;51.286;7.518;2023-11-22T06:03:35;6.43;;;2.97;;
10056;SDS011;5068;51.286;7.518;2023-11-22T06:05:08;5.82;;;2.53;;
10056;SDS011;5068;51.286;7.518;2023-11-22T06:06:42;4.13;;;2.30;;
10056;SDS011;5068;51.286;7.518;2023-11-22T06:08:15;7.28;;;2.60;;
10056;SDS011;5068;51.286;7.518;2023-11-22T06:09:48;4.72;;;2.55;;
10056;SDS011;5068;51.286;7.518;2023-11-22T06:11:22;10.00;;;2.95;;
10056;SDS011;5068;51.286;7.518;2023-11-22T06:12:54;7.20;;;2.67;;
10056;SDS011;5068;51.286;7.518;2023-11-22T06:14:27;5.60;;;2.35;;
10056;SDS011;5068;51.286;7.518;2023-11-22T06:16:00;4.88;;;2.70;;
10056;SDS011;5068;51.286;7.518;2023-11-22T06:17:35;5.68;;;2.75;;
10056;SDS011;5068;51.286;7.518;2023-11-22T06:19:07;5.30;;;2.50;;
10056;SDS011;5068;51.286;7.518;2023-11-22T06:20:41;6.43;;;2.47;;
10056;SDS011;5068;51.286;7.518;2023-11-22T06:22:14;3.88;;;2.30;;
10056;SDS011;5068;51.286;7.518;2023-11-22T06:23:49;4.13;;;2.72;;
10056;SDS011;5068;51.286;7.518;2023-11-22T06:25:21;3.92;;;2.22;;
10056;SDS011;5068;51.286;7.518;2023-11-22T06:26:55;5.97;;;2.40;;
10056;SDS011;5068;51.286;7.518;2023-11-22T06:28:27;5.63;;;2.85;;
10056;SDS011;5068;51.286;7.518;2023-11-22T06:30:01;3.78;;;2.53;;
10056;SDS011;5068;51.286;7.518;2023-11-22T06:31:35;9.50;;;3.28;;
10056;SDS011;5068;51.286;7.518;2023-11-22T06:33:10;5.50;;;2.63;;
10056;SDS011;5068;51.286;7.518;2023-11-22T06:34:42;3.85;;;2.65;;
10056;SDS011;5068;51.286;7.518;2023-11-22T06:36:15;5.75;;;2.60;;
10056;SDS011;5068;51.286;7.518;2023-11-22T06:37:47;5.10;;;2.30;;
10056;SDS011;5068;51.286;7.518;2023-11-22T06:39:21;4.60;;;2.33;;
10056;SDS011;5068;51.286;7.518;2023-11-22T06:40:54;4.93;;;2.58;;
10056;SDS011;5068;51.286;7.518;2023-11-22T06:42:27;4.13;;;2.97;;
10056;SDS011;5068;51.286;7.518;2023-11-22T06:44:00;4.18;;;2.65;;
10056;SDS011;5068;51.286;7.518;2023-11-22T06:45:35;6.55;;;2.83;;
10056;SDS011;5068;51.286;7.518;2023-11-22T06:47:08;3.65;;;2.90;;
10056;SDS011;5068;51.286;7.518;2023-11-22T06:48:43;7.45;;;2.58;;
10056;SDS011;5068;51.286;7.518;2023-11-22T06:50:20;5.80;;;2.30;;
10056;SDS011;5068;51.286;7.518;2023-11-22T06:51:53;5.70;;;2.60;;
10056;SDS011;5068;51.286;7.518;2023-11-22T06:53:25;4.93;;;2.58;;
10056;SDS011;5068;51.286;7.518;2023-11-22T06:54:59;7.30;;;3.00;;
10056;SDS011;5068;51.286;7.518;2023-11-22T06:56:31;5.07;;;2.38;;
10056;SDS011;5068;51.286;7.518;2023-11-22T06:58:04;4.25;;;2.20;;
10056;SDS011;5068;51.286;7.518;2023-11-22T06:59:38;10.68;;;2.35;;
10056;SDS011;5068;51.286;7.518;2023-11-22T07:01:12;8.50;;;2.95;;
10056;SDS011;5068;51.286;7.518;2023-11-22T07:02:47;5.80;;;2.40;;
10056;SDS011;5068;51.286;7.518;2023-11-22T07:04:22;4.45;;;2.70;;
10056;SDS011;5068;51.286;7.518;2023-11-22T07:07:28;4.32;;;2.55;;
10056;SDS011;5068;51.286;7.518;2023-11-22T07:09:02;5.72;;;3.05;;
10056;SDS011;5068;51.286;7.518;2023-11-22T07:10:37;8.07;;;2.45;;
10056;SDS011;5068;51.286;7.518;2023-11-22T07:12:09;9.25;;;2.33;;
10056;SDS011;5068;51.286;7.518;2023-11-22T07:13:43;4.28;;;2.35;;
10056;SDS011;5068;51.286;7.518;2023-11-22T07:15:16;4.75;;;2.75;;
10056;SDS011;5068;51.286;7.518;2023-11-22T07:16:50;8.07;;;2.20;;
10056;SDS011;5068;51.286;7.518;2023-11-22T07:18:25;7.50;;;2.63;;
10056;SDS011;5068;51.286;7.518;2023-11-22T07:20:00;4.78;;;2.30;;
10056;SDS011;5068;51.286;7.518;2023-11-22T07:21:35;5.57;;;2.67;;
10056;SDS011;5068;51.286;7.518;2023-11-22T07:23:09;4.40;;;2.47;;
10056;SDS011;5068;51.286;7.518;2023-11-22T07:24:45;3.20;;;2.50;;
10056;SDS011;5068;51.286;7.518;2023-11-22T07:26:22;4.93;;;2.30;;
10056;SDS011;5068;51.286;7.518;2023-11-22T07:27:58;4.28;;;2.00;;
10056;SDS011;5068;51.286;7.518;2023-11-22T07:29:31;3.58;;;2.38;;
10056;SDS011;5068;51.286;7.518;2023-11-22T07:31:06;9.23;;;2.50;;
10056;SDS011;5068;51.286;7.518;2023-11-22T07:32:40;5.57;;;2.28;;
10056;SDS011;5068;51.286;7.518;2023-11-22T07:34:14;8.23;;;2.38;;
10056;SDS011;5068;51.286;7.518;2023-11-22T07:35:51;7.55;;;2.53;;
10056;SDS011;5068;51.286;7.518;2023-11-22T07:37:25;3.70;;;2.13;;
10056;SDS011;5068;51.286;7.518;2023-11-22T07:38:57;4.03;;;2.25;;
10056;SDS011;5068;51.286;7.518;2023-11-22T07:40:30;6.55;;;2.20;;
10056;SDS011;5068;51.286;7.518;2023-11-22T07:42:04;7.05;;;2.00;;
10056;SDS011;5068;51.286;7.518;2023-11-22T07:43:39;5.85;;;2.40;;
10056;SDS011;5068;51.286;7.518;2023-11-22T07:45:11;6.90;;;2.08;;
10056;SDS011;5068;51.286;7.518;2023-11-22T07:46:45;9.13;;;2.47;;
10056;SDS011;5068;51.286;7.518;2023-11-22T07:48:18;7.43;;;2.33;;
10056;SDS011;5068;51.286;7.518;2023-11-22T07:49:52;6.68;;;2.17;;
10056;SDS011;5068;51.286;7.518;2023-11-22T07:51:28;6.10;;;2.65;;
10056;SDS011;5068;51.286;7.518;2023-11-22T07:53:01;4.78;;;2.30;;
10056;SDS011;5068;51.286;7.518;2023-11-22T07:54:35;8.32;;;2.30;;
10056;SDS011;5068;51.286;7.518;2023-11-22T07:56:08;6.82;;;3.22;;
10056;SDS011;5068;51.286;7.518;2023-11-22T07:57:43;6.05;;;2.50;;
10056;SDS011;5068;51.286;7.518;2023-11-22T07:59:16;5.47;;;2.33;;
10056;SDS011;5068;51.286;7.518;2023-11-22T08:00:49;4.93;;;2.05;;
10056;SDS011;5068;51.286;7.518;2023-11-22T08:02:23;5.93;;;1.92;;
10056;SDS011;5068;51.286;7.518;2023-11-22T08:03:56;4.68;;;2.33;;
10056;SDS011;5068;51.286;7.518;2023-11-22T08:05:30;15.05;;;2.58;;
10056;SDS011;5068;51.286;7.518;2023-11-22T08:07:07;7.53;;;2.42;;
10056;SDS011;5068;51.286;7.518;2023-11-22T08:08:42;7.32;;;3.00;;
10056;SDS011;5068;51.286;7.518;2023-11-22T08:10:17;5.93;;;2.50;;
10056;SDS011;5068;51.286;7.518;2023-11-22T08:11:51;3.95;;;2.17;;
10056;SDS011;5068;51.286;7.518;2023-11-22T08:13:24;10.27;;;2.45;;
10056;SDS011;5068;51.286;7.518;2023-11-22T08:14:58;4.32;;;2.80;;
10056;SDS011;5068;51.286;7.518;2023-11-22T08:16:30;7.60;;;2.88;;
10056;SDS011;5068;51.286;7.518;2023-11-22T08:18:09;6.35;;;2.85;;
10056;SDS011;5068;51.286;7.518;2023-11-22T08:19:43;4.65;;;2.58;;
10056;SDS011;5068;51.286;7.518;2023-11-22T08:21:15;4.75;;;2.40;;
10056;SDS011;5068;51.286;7.518;2023-11-22T08:22:51;12.63;;;3.30;;
10056;SDS011;5068;51.286;7.518;2023-11-22T08:24:23;5.32;;;2.72;;
10056;SDS011;5068;51.286;7.518;2023-11-22T08:25:57;3.55;;;2.28;;
10056;SDS011;5068;51.286;7.518;2023-11-22T08:27:30;5.45;;;2.25;;
10056;SDS011;5068;51.286;7.518;2023-11-22T08:29:04;4.32;;;2.22;;
10056;SDS011;5068;51.286;7.518;2023-11-22T08:30:38;5.00;;;2.20;;
10056;SDS011;5068;51.286;7.518;2023-11-22T08:32:12;4.70;;;2.40;;
10056;SDS011;5068;51.286;7.518;2023-11-22T08:33:45;8.82;;;2.22;;
10056;SDS011;5068;51.286;7.518;2023-11-22T08:35:18;4.97;;;2.30;;
10056;SDS011;5068;51.286;7.518;2023-11-22T08:38:27;6.70;;;2.30;;
10056;SDS011;5068;51.286;7.518;2023-11-22T08:40:00;4.65;;;2.35;;
10056;SDS011;5068;51.286;7.518;2023-11-22T08:41:33;5.20;;;2.55;;
10056;SDS011;5068;51.286;7.518;2023-11-22T08:43:06;4.45;;;2.38;;
10056;SDS011;5068;51.286;7.518;2023-11-22T08:44:39;3.67;;;2.30;;
10056;SDS011;5068;51.286;7.518;2023-11-22T08:46:12;4.10;;;2.78;;
10056;SDS011;5068;51.286;7.518;2023-11-22T08:47:45;4.57;;;2.60;;
10056;SDS011;5068;51.286;7.518;2023-11-22T08:49:19;6.47;;;3.00;;
10056;SDS011;5068;51.286;7.518;2023-11-22T08:50:53;9.15;;;3.65;;
10056;SDS011;5068;51.286;7.518;2023-11-22T08:52:27;5.70;;;3.10;;
10056;SDS011;5068;51.286;7.518;2023-11-22T08:54:03;6.80;;;2.78;;
10056;SDS011;5068;51.286;7.518;2023-11-22T08:55:36;5.20;;;2.70;;
10056;SDS011;5068;51.286;7.518;2023-11-22T08:57:09;5.07;;;2.97;;
10056;SDS011;5068;51.286;7.518;2023-11-22T08:58:41;5.18;;;2.30;;
10056;SDS011;5068;51.286;7.518;2023-11-22T09:00:15;5.13;;;2.58;;
10056;SDS011;5068;51.286;7.518;2023-11-22T09:01:53;4.35;;;2.70;;
10056;SDS011;5068;51.286;7.518;2023-11-22T09:03:26;9.57;;;2.95;;
10056;SDS011;5068;51.286;7.518;2023-11-22T09:05:00;4.70;;;2.58;;
10056;SDS011;5068;51.286;7.518;2023-11-22T09:08:07;4.60;;;2.28;;
10056;SDS011;5068;51.286;7.518;2023-11-22T09:09:57;5.25;;;2.45;;
10056;SDS011;5068;51.286;7.518;2023-11-22T09:11:30;5.47;;;2.20;;
10056;SDS011;5068;51.286;7.518;2023-11-22T09:13:05;5.70;;;2.60;;
10056;SDS011;5068;51.286;7.518;2023-11-22T09:14:39;4.47;;;2.55;;
10056;SDS011;5068;51.286;7.518;2023-11-22T09:16:12;5.28;;;2.80;;
10056;SDS011;5068;51.286;7.518;2023-11-22T09:17:48;4.55;;;2.38;;
10056;SDS011;5068;51.286;7.518;2023-11-22T09:19:20;5.35;;;2.90;;
10056;SDS011;5068;51.286;7.518;2023-11-22T09:20:54;6.13;;;3.25;;
10056;SDS011;5068;51.286;7.518;2023-11-22T09:22:27;4.25;;;2.58;;
10056;SDS011;5068;51.286;7.518;2023-11-22T09:24:00;4.32;;;3.13;;
10056;SDS011;5068;51.286;7.518;2023-11-22T09:25:35;4.82;;;2.60;;
10056;SDS011;5068;51.286;7.518;2023-11-22T09:27:07;4.35;;;2.90;;
10056;SDS011;5068;51.286;7.518;2023-11-22T09:28:43;4.60;;;2.70;;
10056;SDS011;5068;51.286;7.518;2023-11-22T09:30:18;5.40;;;3.13;;
10056;SDS011;5068;51.286;7.518;2023-11-22T09:32:04;5.07;;;2.85;;
10056;SDS011;5068;51.286;7.518;2023-11-22T09:33:38;5.65;;;3.20;;
10056;SDS011;5068;51.286;7.518;2023-11-22T09:35:12;6.40;;;3.00;;
10056;SDS011;5068;51.286;7.518;2023-11-22T09:36:45;4.03;;;2.58;;
10056;SDS011;5068;51.286;7.518;2023-11-22T09:38:18;4.05;;;2.83;;
10056;SDS011;5068;51.286;7.518;2023-11-22T09:39:52;5.03;;;2.80;;
10056;SDS011;5068;51.286;7.518;2023-11-22T09:41:25;4.85;;;2.92;;